Time;durP1;ratioP1;P1;durP2;ratioP2;P2;SDS_P1;SDS_P2;PMS_P1;PMS_P2;Temp;Humidity;BMP_temperature;BMP_pressure;BME280_temperature;BME280_humidity;BME280_pressure;Samples;Min_cycle;Max_cycle;Signal;HPM_P1;HPM_P2
2023/05/25 00:02:03;;;;;;;6.13;4.65;;;19.10;92.60;;;;;;6174925;22;20005;-57
2023/05/25 00:04:33;;;;;;;5.22;4.43;;;19.10;92.60;;;;;;6176846;22;20142;-57
2023/05/25 00:06:59;;;;;;;5.80;4.95;;;19.10;92.70;;;;;;6177559;22;20044;-57
2023/05/25 00:09:25;;;;;;;6.53;4.68;;;19.10;92.70;;;;;;6178404;22;20643;-57
2023/05/25 00:11:51;;;;;;;9.57;5.22;;;19.10;92.70;;;;;;6177021;22;20012;-59
2023/05/25 00:14:17;;;;;;;5.50;4.82;;;19.10;92.70;;;;;;6178252;22;20440;-57
2023/05/25 00:16:43;;;;;;;5.20;4.70;;;19.10;92.80;;;;;;6177171;22;20088;-58
2023/05/25 00:19:09;;;;;;;5.45;4.85;;;19.10;92.80;;;;;;6177211;23;20084;-57
2023/05/25 00:21:36;;;;;;;4.90;4.40;;;19.10;92.80;;;;;;6178215;22;20670;-57
2023/05/25 00:24:06;;;;;;;7.35;4.95;;;19.10;92.90;;;;;;6176207;22;20017;-58
2023/05/25 00:26:31;;;;;;;6.78;4.50;;;19.10;92.90;;;;;;6177316;22;20005;-57
2023/05/25 00:28:59;;;;;;;4.78;4.32;;;19.10;92.90;;;;;;6177564;22;20017;-57
2023/05/25 00:31:25;;;;;;;5.20;4.30;;;19.10;92.90;;;;;;6177711;22;20139;-57
2023/05/25 00:33:51;;;;;;;6.68;4.28;;;19.10;93.00;;;;;;6176856;22;20013;-57
2023/05/25 00:36:16;;;;;;;5.40;4.82;;;19.10;92.90;;;;;;6177799;22;20467;-57
2023/05/25 00:38:42;;;;;;;5.32;4.60;;;19.10;92.80;;;;;;6177878;22;20005;-57
2023/05/25 00:41:08;;;;;;;6.00;4.63;;;19.10;92.70;;;;;;6177212;22;20001;-57
2023/05/25 00:43:34;;;;;;;7.03;4.95;;;19.10;92.70;;;;;;6178003;22;20001;-56
2023/05/25 00:46:01;;;;;;;4.93;4.43;;;19.10;92.60;;;;;;6176537;22;20016;-58
2023/05/25 00:48:27;;;;;;;5.00;4.50;;;19.10;92.60;;;;;;6177540;22;20065;-57
2023/05/25 00:50:58;;;;;;;5.63;4.72;;;19.10;92.60;;;;;;6178389;22;20009;-57
2023/05/25 00:53:25;;;;;;;5.20;4.43;;;19.10;92.60;;;;;;6177509;22;20012;-57
2023/05/25 00:56:06;;;;;;;5.50;4.65;;;19.10;92.40;;;;;;6176704;22;20094;-58
2023/05/25 00:58:34;;;;;;;6.70;4.80;;;19.10;92.40;;;;;;6177118;22;20016;-56
2023/05/25 01:01:02;;;;;;;4.97;4.47;;;19.10;92.60;;;;;;6175656;22;20005;-58
2023/05/25 01:03:34;;;;;;;4.60;4.03;;;19.10;92.50;;;;;;6176815;22;20002;-58
2023/05/25 01:06:01;;;;;;;6.65;4.50;;;19.10;92.60;;;;;;6177434;22;20020;-57
2023/05/25 01:08:28;;;;;;;5.80;4.93;;;19.10;92.60;;;;;;6177311;22;20033;-57
2023/05/25 01:10:56;;;;;;;6.00;4.68;;;19.10;92.50;;;;;;6177674;22;20429;-57
2023/05/25 01:13:22;;;;;;;5.53;4.65;;;19.10;92.50;;;;;;6177595;22;20055;-57
2023/05/25 01:15:48;;;;;;;7.10;5.05;;;19.10;92.30;;;;;;6175976;22;20009;-57
2023/05/25 01:18:15;;;;;;;5.68;5.05;;;19.10;92.20;;;;;;6177238;22;20002;-57
2023/05/25 01:21:11;;;;;;;5.32;4.45;;;19.10;92.20;;;;;;6177643;22;20000;-57
2023/05/25 01:23:41;;;;;;;5.75;4.53;;;19.00;91.90;;;;;;6177314;22;20520;-57
2023/05/25 01:26:15;;;;;;;6.65;4.47;;;19.10;92.30;;;;;;6176680;22;20501;-58
2023/05/25 01:28:45;;;;;;;5.65;4.38;;;19.10;92.20;;;;;;6177783;22;20453;-58
2023/05/25 01:31:13;;;;;;;5.45;4.57;;;19.00;92.00;;;;;;6177388;22;20444;-58
2023/05/25 01:33:41;;;;;;;5.18;4.30;;;19.10;92.00;;;;;;6176932;22;20005;-57
2023/05/25 01:36:06;;;;;;;5.50;4.15;;;19.10;92.00;;;;;;6177278;22;20005;-58
2023/05/25 01:38:33;;;;;;;5.45;4.50;;;19.00;91.90;;;;;;6177011;22;20646;-58
2023/05/25 01:40:59;;;;;;;4.93;4.43;;;19.10;92.00;;;;;;6177303;22;20467;-57
2023/05/25 01:43:25;;;;;;;4.65;4.15;;;19.00;92.00;;;;;;6177714;22;20001;-57
2023/05/25 01:45:55;;;;;;;6.90;4.82;;;19.00;92.10;;;;;;6177665;22;20012;-58
2023/05/25 01:48:34;;;;;;;4.78;4.28;;;19.00;92.20;;;;;;6176490;23;20005;-58
2023/05/25 01:51:03;;;;;;;6.03;4.30;;;19.00;92.20;;;;;;6176945;22;20001;-57
2023/05/25 01:53:34;;;;;;;6.18;5.28;;;19.00;92.30;;;;;;6177469;22;20012;-57
2023/05/25 01:56:07;;;;;;;5.78;4.70;;;19.00;92.50;;;;;;6177588;22;20001;-57
2023/05/25 01:58:37;;;;;;;6.55;5.32;;;19.00;92.60;;;;;;6177061;23;20333;-56
2023/05/25 02:01:03;;;;;;;5.20;4.70;;;19.00;92.70;;;;;;6177637;22;20001;-58
2023/05/25 02:03:30;;;;;;;5.43;4.90;;;19.00;92.80;;;;;;6176644;22;20001;-58
2023/05/25 02:05:56;;;;;;;6.60;5.07;;;18.90;92.80;;;;;;6176870;23;20021;-57
2023/05/25 02:08:22;;;;;;;5.97;5.20;;;19.00;92.80;;;;;;6175862;22;20013;-57
2023/05/25 02:10:48;;;;;;;5.35;4.70;;;19.00;92.90;;;;;;6176012;22;20451;-57
2023/05/25 02:13:14;;;;;;;7.13;5.13;;;19.00;92.80;;;;;;6176702;23;20428;-57
2023/05/25 02:15:39;;;;;;;6.18;5.30;;;19.00;92.80;;;;;;6176920;22;20758;-57
2023/05/25 02:18:05;;;;;;;5.25;4.75;;;19.00;92.90;;;;;;6177031;22;20013;-58
2023/05/25 02:20:31;;;;;;;6.20;5.60;;;19.00;92.80;;;;;;6176258;22;20005;-58
2023/05/25 02:22:57;;;;;;;7.43;5.10;;;19.00;93.00;;;;;;6177072;22;20017;-56
2023/05/25 02:25:22;;;;;;;7.22;5.93;;;19.00;93.10;;;;;;6177152;22;20026;-57
2023/05/25 02:27:49;;;;;;;6.57;5.03;;;19.00;93.10;;;;;;6176282;22;20066;-57
2023/05/25 02:30:14;;;;;;;7.88;5.60;;;19.00;93.20;;;;;;6176585;23;20050;-57
2023/05/25 02:32:40;;;;;;;5.85;5.25;;;19.00;93.20;;;;;;6176650;22;20363;-57
2023/05/25 02:35:06;;;;;;;6.65;5.85;;;19.00;93.10;;;;;;6177206;22;20001;-57
2023/05/25 02:37:32;;;;;;;6.63;5.15;;;19.10;93.00;;;;;;6177497;22;20013;-57
2023/05/25 02:39:58;;;;;;;6.07;5.15;;;19.10;92.90;;;;;;6177173;22;20025;-57
2023/05/25 02:42:24;;;;;;;6.57;5.15;;;19.00;92.90;;;;;;6176767;22;20001;-58
2023/05/25 02:44:50;;;;;;;5.40;4.50;;;19.10;92.80;;;;;;6176464;22;20001;-57
2023/05/25 02:47:20;;;;;;;5.22;4.47;;;19.10;92.70;;;;;;6176069;22;20008;-59
2023/05/25 02:49:46;;;;;;;5.65;4.88;;;19.10;92.50;;;;;;6176433;22;20001;-58
2023/05/25 02:52:12;;;;;;;5.40;4.65;;;19.00;92.60;;;;;;6176568;22;20436;-57
2023/05/25 02:54:37;;;;;;;5.88;5.28;;;19.00;92.60;;;;;;6176383;23;20016;-56
2023/05/25 02:57:04;;;;;;;6.25;5.15;;;19.10;92.40;;;;;;6176687;22;20001;-57
2023/05/25 02:59:30;;;;;;;6.00;4.90;;;19.10;92.40;;;;;;6176294;22;20735;-58
2023/05/25 03:01:55;;;;;;;7.32;5.20;;;19.10;92.30;;;;;;6176651;22;20009;-58
2023/05/25 03:04:21;;;;;;;5.60;4.93;;;19.10;92.20;;;;;;6174933;23;20002;-57
2023/05/25 03:06:47;;;;;;;5.13;4.63;;;19.10;92.20;;;;;;6176371;22;20012;-58
2023/05/25 03:09:13;;;;;;;5.97;4.88;;;19.10;92.20;;;;;;6176364;22;20016;-57
2023/05/25 03:11:38;;;;;;;5.22;4.72;;;19.10;92.20;;;;;;6176445;22;20001;-58
2023/05/25 03:14:04;;;;;;;6.45;5.00;;;19.10;92.10;;;;;;6176716;22;20360;-58
2023/05/25 03:16:34;;;;;;;7.18;5.00;;;19.10;92.10;;;;;;6175170;22;20016;-58
2023/05/25 03:19:00;;;;;;;5.53;4.90;;;19.20;92.10;;;;;;6175703;22;20009;-57
2023/05/25 03:21:26;;;;;;;5.78;4.95;;;19.20;92.00;;;;;;6176725;22;20092;-58
2023/05/25 03:23:52;;;;;;;7.05;5.70;;;19.20;92.10;;;;;;6176269;22;20115;-58
2023/05/25 03:26:18;;;;;;;5.65;5.15;;;19.20;92.00;;;;;;6177098;22;20025;-57
2023/05/25 03:28:44;;;;;;;7.25;5.22;;;19.20;91.90;;;;;;6175766;22;20039;-57
2023/05/25 03:31:11;;;;;;;5.28;4.43;;;19.20;91.90;;;;;;6176760;22;20454;-57
2023/05/25 03:33:37;;;;;;;7.00;5.25;;;19.20;91.90;;;;;;6175631;22;20478;-59
2023/05/25 03:36:11;;;;;;;5.65;5.07;;;19.20;92.00;;;;;;6176714;22;20028;-57
2023/05/25 03:38:37;;;;;;;5.97;5.38;;;19.20;92.00;;;;;;6174984;22;20076;-57
2023/05/25 03:41:03;;;;;;;6.57;5.32;;;19.30;92.20;;;;;;6178050;22;20388;-57
2023/05/25 03:43:28;;;;;;;6.00;5.40;;;19.30;92.40;;;;;;6178000;22;20377;-58
2023/05/25 03:45:54;;;;;;;6.32;5.30;;;19.30;92.50;;;;;;6176485;22;20047;-58
2023/05/25 03:48:20;;;;;;;6.72;5.82;;;19.30;92.50;;;;;;6175667;22;20055;-57
2023/05/25 03:50:45;;;;;;;7.22;6.15;;;19.30;92.60;;;;;;6175989;22;20001;-58
2023/05/25 03:53:11;;;;;;;8.15;6.85;;;19.30;92.60;;;;;;6175814;22;20001;-57
2023/05/25 03:55:37;;;;;;;7.85;6.57;;;19.30;92.70;;;;;;6177320;22;20005;-57
2023/05/25 03:58:02;;;;;;;7.10;6.40;;;19.30;93.00;;;;;;6177607;22;20045;-56
2023/05/25 04:00:28;;;;;;;6.97;6.28;;;19.30;93.00;;;;;;6279293;22;20005;-56
2023/05/25 04:02:55;;;;;;;8.85;6.95;;;19.30;92.90;;;;;;6172822;22;20013;-57
2023/05/25 04:05:21;;;;;;;7.97;6.47;;;19.30;93.10;;;;;;6174258;22;20008;-58
2023/05/25 04:07:47;;;;;;;7.68;6.88;;;19.30;93.10;;;;;;6172428;23;20013;-57
2023/05/25 04:10:12;;;;;;;8.20;6.88;;;19.30;93.20;;;;;;6173500;23;20012;-57
2023/05/25 04:12:38;;;;;;;8.27;7.28;;;19.30;93.10;;;;;;6175306;22;20016;-56
2023/05/25 04:15:07;;;;;;;7.63;6.82;;;19.40;93.20;;;;;;6175754;22;20012;-56
2023/05/25 04:17:34;;;;;;;7.75;6.57;;;19.40;93.30;;;;;;6177396;22;20016;-56
2023/05/25 04:20:00;;;;;;;7.25;6.55;;;19.40;93.30;;;;;;6177030;22;20009;-55
2023/05/25 04:22:26;;;;;;;9.77;7.30;;;19.50;93.30;;;;;;6176944;22;20050;-57
2023/05/25 04:24:52;;;;;;;8.70;7.80;;;19.50;93.20;;;;;;6176985;22;20080;-57
2023/05/25 04:27:19;;;;;;;8.35;7.55;;;19.60;93.10;;;;;;6177383;22;20055;-57
2023/05/25 04:29:45;;;;;;;8.70;7.45;;;19.60;92.90;;;;;;6177613;22;20008;-56
2023/05/25 04:32:16;;;;;;;9.10;7.05;;;19.60;92.80;;;;;;6176749;22;20001;-57
2023/05/25 04:34:43;;;;;;;7.78;7.00;;;19.60;92.80;;;;;;6177050;22;20302;-57
2023/05/25 04:37:09;;;;;;;10.65;7.60;;;19.70;92.70;;;;;;6177546;22;20413;-58
2023/05/25 04:39:35;;;;;;;10.77;7.22;;;19.70;92.60;;;;;;6176333;22;20005;-59
2023/05/25 04:42:04;;;;;;;8.95;8.02;;;19.70;92.60;;;;;;6175956;22;20012;-57
2023/05/25 04:44:31;;;;;;;8.13;7.20;;;19.80;92.70;;;;;;6177492;22;20012;-58
2023/05/25 04:46:58;;;;;;;8.18;7.28;;;19.80;92.70;;;;;;6175751;22;20001;-57
2023/05/25 04:49:25;;;;;;;8.30;7.28;;;19.80;92.60;;;;;;6175652;22;20001;-57
2023/05/25 04:51:51;;;;;;;8.45;7.63;;;19.80;92.40;;;;;;6175737;22;20337;-59
2023/05/25 04:54:17;;;;;;;8.98;7.53;;;19.90;92.40;;;;;;6177386;22;20086;-57
2023/05/25 04:56:42;;;;;;;8.50;7.60;;;19.90;92.20;;;;;;6175320;22;20024;-59
2023/05/25 04:59:08;;;;;;;8.38;7.57;;;20.00;92.10;;;;;;6177014;22;20035;-58
2023/05/25 05:01:39;;;;;;;8.40;6.97;;;20.00;92.10;;;;;;6177371;22;20009;-58
2023/05/25 05:04:07;;;;;;;8.23;7.07;;;20.00;91.90;;;;;;6176486;22;20001;-58
2023/05/25 05:06:33;;;;;;;9.07;7.72;;;20.10;91.90;;;;;;6177220;22;20001;-58
2023/05/25 05:09:00;;;;;;;8.15;6.93;;;20.10;91.60;;;;;;6177209;23;20016;-57
2023/05/25 05:11:27;;;;;;;8.48;7.60;;;20.20;91.60;;;;;;6173945;22;20058;-57
2023/05/25 05:13:56;;;;;;;9.48;7.63;;;20.20;91.40;;;;;;6174767;22;20013;-57
2023/05/25 05:16:21;;;;;;;8.43;7.55;;;20.20;91.10;;;;;;6277915;22;20040;-55
2023/05/25 05:18:47;;;;;;;9.98;7.93;;;20.20;91.00;;;;;;6171839;22;20048;-57
2023/05/25 05:21:13;;;;;;;8.43;7.57;;;20.20;91.00;;;;;;6171519;22;20001;-57
2023/05/25 05:23:39;;;;;;;9.07;7.95;;;20.20;91.00;;;;;;6171136;22;20041;-57
2023/05/25 05:26:08;;;;;;;8.95;8.10;;;20.20;91.00;;;;;;6173943;22;20001;-57
2023/05/25 05:28:34;;;;;;;9.20;8.23;;;20.20;91.10;;;;;;6170691;22;20320;-57
2023/05/25 05:31:00;;;;;;;8.63;7.32;;;20.20;91.00;;;;;;6171958;22;20021;-58
2023/05/25 05:33:26;;;;;;;8.95;8.00;;;20.20;91.10;;;;;;6172439;22;20318;-57
2023/05/25 05:35:53;;;;;;;8.75;7.10;;;20.20;91.20;;;;;;6174028;22;20013;-57
2023/05/25 05:38:20;;;;;;;8.73;7.07;;;20.30;91.20;;;;;;6172112;22;20421;-55
2023/05/25 05:40:45;;;;;;;9.43;7.03;;;20.30;91.20;;;;;;6170414;22;20005;-57
2023/05/25 05:43:12;;;;;;;8.65;7.53;;;20.30;91.10;;;;;;6173366;22;20001;-57
2023/05/25 05:45:38;;;;;;;8.80;7.88;;;20.30;91.20;;;;;;6171847;22;20009;-56
2023/05/25 05:48:08;;;;;;;8.88;7.82;;;20.40;91.00;;;;;;6169730;22;20433;-58
2023/05/25 05:50:35;;;;;;;8.88;7.72;;;20.50;90.90;;;;;;6171777;22;20747;-57
2023/05/25 05:53:00;;;;;;;9.13;7.20;;;20.50;90.80;;;;;;6171347;23;20069;-57
2023/05/25 05:55:26;;;;;;;10.02;7.93;;;20.60;90.80;;;;;;6170707;22;20094;-58
2023/05/25 05:57:51;;;;;;;8.73;7.82;;;20.60;90.60;;;;;;6172769;22;20037;-57
2023/05/25 06:00:18;;;;;;;10.43;8.05;;;20.70;90.50;;;;;;6173307;22;20005;-57
2023/05/25 06:02:43;;;;;;;8.35;7.50;;;20.70;90.10;;;;;;6170458;23;20772;-57
2023/05/25 06:05:09;;;;;;;8.38;7.43;;;20.80;90.10;;;;;;6173220;22;20084;-57
2023/05/25 06:07:36;;;;;;;7.55;6.82;;;20.80;89.60;;;;;;6167251;22;20036;-58
2023/05/25 06:10:02;;;;;;;8.48;7.55;;;20.90;89.50;;;;;;6169717;22;20373;-57
2023/05/25 06:12:28;;;;;;;9.32;7.68;;;20.90;89.40;;;;;;6168993;22;20020;-58
2023/05/25 06:14:54;;;;;;;9.10;7.93;;;20.90;89.30;;;;;;6170219;22;20501;-57
2023/05/25 06:17:20;;;;;;;8.18;7.38;;;20.90;88.90;;;;;;6172147;22;20076;-58
2023/05/25 06:19:46;;;;;;;8.52;7.60;;;21.00;88.90;;;;;;6166702;22;20674;-57
2023/05/25 06:22:12;;;;;;;10.00;8.13;;;21.00;88.80;;;;;;6165461;22;20071;-57
2023/05/25 06:24:37;;;;;;;8.98;7.53;;;21.00;88.50;;;;;;6163018;22;20005;-58
2023/05/25 06:27:03;;;;;;;8.75;7.70;;;21.00;88.40;;;;;;6167825;22;20012;-57
2023/05/25 06:29:29;;;;;;;10.07;8.48;;;21.10;88.50;;;;;;6166640;22;20012;-57
2023/05/25 06:31:55;;;;;;;8.15;7.30;;;21.10;87.90;;;;;;6164282;22;20493;-57
2023/05/25 06:34:20;;;;;;;9.02;7.88;;;21.20;87.80;;;;;;6166109;22;20005;-57
2023/05/25 06:36:46;;;;;;;10.35;7.93;;;21.20;87.40;;;;;;6167940;22;20067;-57
2023/05/25 06:39:12;;;;;;;8.45;7.43;;;21.30;87.10;;;;;;6162507;22;20730;-58
2023/05/25 06:41:39;;;;;;;8.63;7.50;;;21.40;86.60;;;;;;6165221;22;20006;-56
2023/05/25 06:44:05;;;;;;;10.85;8.27;;;21.40;86.00;;;;;;6167807;22;20446;-56
2023/05/25 06:46:31;;;;;;;9.43;7.45;;;21.50;85.60;;;;;;6166936;22;20182;-57
2023/05/25 06:48:59;;;;;;;8.00;7.20;;;21.60;84.80;;;;;;6165191;22;20337;-57
2023/05/25 06:51:26;;;;;;;7.70;6.95;;;21.60;84.40;;;;;;6161315;22;20036;-55
2023/05/25 06:53:54;;;;;;;8.68;7.78;;;21.70;84.20;;;;;;6161561;22;20015;-56
2023/05/25 06:56:20;;;;;;;9.75;7.75;;;21.70;83.80;;;;;;6166125;22;20008;-57
2023/05/25 06:58:46;;;;;;;8.55;7.72;;;21.70;83.60;;;;;;6163313;22;20123;-57
2023/05/25 07:01:11;;;;;;;10.05;7.75;;;21.70;83.60;;;;;;6160881;22;20085;-57
2023/05/25 07:03:37;;;;;;;10.50;8.15;;;21.70;83.40;;;;;;6163479;22;20421;-58
2023/05/25 07:06:03;;;;;;;10.30;8.30;;;21.80;83.60;;;;;;6168078;22;20026;-57
2023/05/25 07:08:30;;;;;;;8.70;7.70;;;21.80;83.70;;;;;;6166340;22;20012;-57
2023/05/25 07:10:55;;;;;;;9.48;8.50;;;21.80;83.60;;;;;;6166539;22;20009;-59
2023/05/25 07:13:21;;;;;;;9.80;8.38;;;21.80;83.60;;;;;;6168618;22;20340;-57
2023/05/25 07:15:47;;;;;;;10.25;7.75;;;21.90;83.80;;;;;;6166058;22;20013;-58
2023/05/25 07:18:13;;;;;;;9.63;7.55;;;21.90;83.50;;;;;;6168546;22;20491;-58
2023/05/25 07:20:40;;;;;;;11.05;8.27;;;22.00;83.50;;;;;;6168268;23;20025;-58
2023/05/25 07:23:09;;;;;;;10.00;8.50;;;22.00;83.50;;;;;;6160348;23;20505;-56
2023/05/25 07:25:37;;;;;;;10.27;8.40;;;22.10;83.50;;;;;;6166078;22;20609;-59
2023/05/25 07:28:02;;;;;;;8.98;7.35;;;22.10;83.20;;;;;;6160866;22;20336;-58
2023/05/25 07:30:28;;;;;;;8.75;7.47;;;22.20;83.20;;;;;;6162052;22;20008;-58
2023/05/25 07:32:54;;;;;;;8.95;7.80;;;22.30;83.20;;;;;;6160788;22;20012;-57
2023/05/25 07:35:19;;;;;;;9.20;7.90;;;22.40;83.00;;;;;;6164974;22;20005;-57
2023/05/25 07:37:45;;;;;;;8.85;7.85;;;22.50;82.50;;;;;;6167731;22;20005;-58
2023/05/25 07:40:11;;;;;;;8.68;7.45;;;22.50;82.30;;;;;;6167971;22;20437;-58
2023/05/25 07:42:37;;;;;;;8.38;7.05;;;22.60;82.10;;;;;;6162115;22;20009;-59
2023/05/25 07:45:03;;;;;;;8.90;7.30;;;22.60;81.50;;;;;;6165647;22;20013;-59
2023/05/25 07:47:28;;;;;;;9.32;7.78;;;22.70;81.50;;;;;;6162164;22;20009;-58
2023/05/25 07:49:54;;;;;;;8.65;7.50;;;22.80;81.00;;;;;;6166179;22;20456;-57
2023/05/25 07:52:20;;;;;;;8.93;7.88;;;22.90;80.70;;;;;;6164614;22;20012;-57
2023/05/25 07:54:45;;;;;;;8.90;7.28;;;22.90;80.30;;;;;;6167605;22;20005;-58
2023/05/25 07:57:11;;;;;;;8.18;7.22;;;22.90;80.20;;;;;;6163189;22;20013;-57
2023/05/25 07:59:36;;;;;;;9.25;7.43;;;23.00;79.90;;;;;;6159940;22;20009;-57
2023/05/25 08:02:02;;;;;;;8.82;7.53;;;23.00;79.80;;;;;;6166749;22;20119;-56
2023/05/25 08:04:29;;;;;;;9.60;7.30;;;23.00;79.60;;;;;;6162472;22;20036;-59
2023/05/25 08:06:56;;;;;;;7.60;6.90;;;23.10;79.50;;;;;;6159451;22;20097;-58
2023/05/25 08:09:21;;;;;;;10.88;8.20;;;23.10;79.50;;;;;;6165280;22;20009;-59
2023/05/25 08:11:47;;;;;;;8.15;7.32;;;23.20;79.20;;;;;;6168294;22;20663;-60
2023/05/25 08:14:13;;;;;;;9.80;7.90;;;23.20;79.20;;;;;;6160287;22;20005;-58
2023/05/25 08:16:38;;;;;;;8.95;7.68;;;23.20;79.30;;;;;;6164943;22;20016;-58
2023/05/25 08:19:04;;;;;;;8.57;7.68;;;23.20;79.50;;;;;;6166371;22;20013;-57
2023/05/25 08:21:33;;;;;;;8.95;7.63;;;23.20;79.30;;;;;;6166972;22;20027;-58
2023/05/25 08:24:02;;;;;;;8.93;7.97;;;23.20;78.80;;;;;;6168553;22;20017;-56
2023/05/25 08:26:28;;;;;;;8.80;7.80;;;23.20;78.90;;;;;;6152137;22;20507;-61
2023/05/25 08:28:55;;;;;;;9.52;8.52;;;23.30;79.00;;;;;;6156570;22;20013;-59
2023/05/25 08:31:21;;;;;;;10.15;8.15;;;23.30;78.70;;;;;;6146763;22;20570;-57
2023/05/25 08:33:46;;;;;;;9.32;7.43;;;23.30;78.50;;;;;;6151074;22;20024;-59
2023/05/25 08:36:12;;;;;;;9.18;7.72;;;23.30;78.50;;;;;;6157789;22;20495;-58
2023/05/25 08:38:37;;;;;;;10.07;8.25;;;23.30;78.70;;;;;;6156667;22;20004;-58
2023/05/25 08:41:05;;;;;;;10.60;8.80;;;23.30;78.70;;;;;;6156189;22;20070;-56
2023/05/25 08:43:32;;;;;;;11.02;8.90;;;23.30;78.90;;;;;;6152120;22;20002;-56
2023/05/25 08:46:02;;;;;;;10.73;8.98;;;23.30;78.80;;;;;;6152296;22;20699;-59
2023/05/25 08:48:31;;;;;;;8.88;7.97;;;23.30;78.60;;;;;;6152642;22;20059;-60
2023/05/25 08:51:03;;;;;;;11.88;8.77;;;23.30;78.80;;;;;;6160787;22;20009;-59
2023/05/25 08:53:37;;;;;;;8.73;7.82;;;23.30;78.40;;;;;;6160661;22;20005;-60
2023/05/25 08:56:25;;;;;;;9.27;8.38;;;23.40;79.10;;;;;;6159526;22;20005;-58
2023/05/25 08:59:08;;;;;;;10.95;8.38;;;23.40;79.20;;;;;;6162377;23;20062;-57
2023/05/25 09:01:41;;;;;;;9.27;7.82;;;23.50;78.90;;;;;;6151310;22;20006;-59
2023/05/25 09:04:07;;;;;;;9.20;7.20;;;23.50;78.50;;;;;;6158680;22;20231;-58
2023/05/25 09:06:35;;;;;;;10.52;7.80;;;23.50;77.60;;;;;;6164285;23;20108;-58
2023/05/25 09:09:03;;;;;;;10.02;8.27;;;23.50;77.20;;;;;;6161009;22;20735;-56
2023/05/25 09:11:30;;;;;;;9.15;8.07;;;23.50;77.30;;;;;;6163001;23;20046;-60
2023/05/25 09:13:56;;;;;;;9.32;7.40;;;23.50;77.30;;;;;;6159485;22;20005;-59
2023/05/25 09:16:23;;;;;;;8.23;7.38;;;23.50;77.30;;;;;;6159953;22;20381;-59
2023/05/25 09:18:49;;;;;;;8.35;7.32;;;23.50;77.30;;;;;;6157768;22;20009;-59
2023/05/25 09:21:14;;;;;;;8.52;7.05;;;23.50;77.10;;;;;;6165850;22;20008;-58
2023/05/25 09:23:41;;;;;;;8.00;7.20;;;23.50;77.10;;;;;;6160871;22;20021;-57
2023/05/25 09:26:07;;;;;;;8.65;6.97;;;23.50;76.90;;;;;;6152633;22;20345;-59
2023/05/25 09:28:33;;;;;;;7.15;6.20;;;23.50;77.00;;;;;;6160473;22;20009;-58
2023/05/25 09:30:59;;;;;;;8.38;5.95;;;23.50;76.70;;;;;;6159739;22;20009;-58
2023/05/25 09:33:25;;;;;;;7.18;6.45;;;23.50;76.40;;;;;;6152849;23;20743;-58
2023/05/25 09:35:51;;;;;;;8.00;6.30;;;23.50;76.10;;;;;;6159250;22;20084;-58
2023/05/25 09:38:17;;;;;;;7.60;6.18;;;23.50;76.30;;;;;;6153064;22;20017;-58
2023/05/25 09:40:43;;;;;;;10.38;7.05;;;23.50;76.60;;;;;;6160971;22;20653;-58
2023/05/25 09:43:10;;;;;;;9.85;6.07;;;23.50;76.50;;;;;;6160673;22;20405;-57
2023/05/25 09:45:36;;;;;;;8.48;6.45;;;23.50;76.60;;;;;;6161243;22;20062;-58
2023/05/25 09:48:02;;;;;;;8.13;6.50;;;23.60;76.30;;;;;;6155826;22;20009;-59
2023/05/25 09:50:28;;;;;;;11.02;6.60;;;23.60;75.90;;;;;;6155703;22;20042;-59
2023/05/25 09:53:01;;;;;;;8.13;6.63;;;23.60;76.10;;;;;;6159987;22;20090;-61
2023/05/25 09:55:27;;;;;;;9.18;6.00;;;23.60;76.00;;;;;;6161267;22;20078;-58
2023/05/25 09:57:54;;;;;;;8.18;6.28;;;23.70;75.80;;;;;;6154212;22;20005;-61
2023/05/25 10:00:22;;;;;;;7.15;5.97;;;23.70;75.50;;;;;;6158660;23;20032;-59
2023/05/25 10:02:48;;;;;;;8.45;6.60;;;23.80;75.20;;;;;;6153900;22;20008;-58
2023/05/25 10:05:14;;;;;;;10.00;6.68;;;23.80;75.00;;;;;;6260920;22;20009;-59
2023/05/25 10:07:42;;;;;;;8.52;6.45;;;23.80;74.90;;;;;;6156075;22;20009;-57
2023/05/25 10:10:11;;;;;;;9.55;6.50;;;23.80;75.10;;;;;;6154074;22;20880;-59
2023/05/25 10:12:39;;;;;;;8.18;6.10;;;23.70;74.60;;;;;;6155095;22;20016;-60
2023/05/25 10:15:08;;;;;;;8.18;6.43;;;23.60;74.60;;;;;;6154783;22;20088;-58
2023/05/25 10:17:35;;;;;;;8.73;6.72;;;23.50;75.00;;;;;;6158289;22;20013;-58
2023/05/25 10:20:06;;;;;;;8.45;6.55;;;23.40;75.20;;;;;;6152453;22;20452;-58
2023/05/25 10:23:07;;;;;;;;;;;23.40;75.40;;;;;;6153236;22;20013;-58
2023/05/25 10:25:40;;;;;;;9.00;6.65;;;23.20;75.60;;;;;;6216534;23;19915;-57
2023/05/25 10:28:34;;;;;;;10.25;6.38;;;23.10;76.20;;;;;;6170485;22;20005;-57
2023/05/25 10:31:00;;;;;;;9.55;7.18;;;23.10;76.80;;;;;;6156119;22;20017;-57
2023/05/25 10:33:27;;;;;;;8.35;7.13;;;23.00;77.80;;;;;;6152286;22;20013;-57
2023/05/25 10:35:53;;;;;;;11.82;7.35;;;23.00;78.50;;;;;;6149596;22;20005;-57
2023/05/25 10:38:21;;;;;;;8.00;6.55;;;23.00;79.40;;;;;;6261765;22;20521;-58
2023/05/25 10:40:49;;;;;;;9.23;7.32;;;22.90;79.90;;;;;;6155050;22;20277;-59
2023/05/25 10:43:16;;;;;;;9.00;7.28;;;22.80;80.30;;;;;;6161803;22;20001;-57
2023/05/25 10:45:42;;;;;;;9.05;7.28;;;22.90;81.80;;;;;;6152871;22;20001;-57
2023/05/25 10:48:08;;;;;;;8.55;6.68;;;22.80;81.70;;;;;;6161340;23;20005;-58
2023/05/25 10:50:35;;;;;;;9.00;6.75;;;22.80;82.50;;;;;;6162390;22;20009;-59
2023/05/25 10:53:11;;;;;;;15.48;11.23;;;22.80;82.90;;;;;;6164532;22;20112;-58
2023/05/25 10:55:50;;;;;;;13.18;8.48;;;22.90;84.20;;;;;;6156225;22;20017;-58
2023/05/25 10:58:17;;;;;;;9.00;7.45;;;22.90;85.10;;;;;;6154810;22;20009;-58
2023/05/25 11:01:00;;;;;;;8.68;7.32;;;22.90;85.50;;;;;;6150078;22;20008;-59
2023/05/25 11:03:44;;;;;;;8.15;6.93;;;22.90;85.60;;;;;;6156971;22;20001;-57
2023/05/25 11:06:14;;;;;;;7.90;6.47;;;22.90;85.70;;;;;;6155442;22;20047;-57
2023/05/25 11:08:49;;;;;;;6.60;5.32;;;22.80;85.40;;;;;;6157630;22;20013;-59
2023/05/25 11:11:15;;;;;;;6.32;5.53;;;22.70;84.20;;;;;;6158532;22;20639;-56
2023/05/25 11:13:44;;;;;;;7.70;4.95;;;22.60;84.00;;;;;;6158382;22;20020;-60
2023/05/25 11:16:26;;;;;;;4.93;4.43;;;22.50;83.40;;;;;;6154305;22;20001;-59
2023/05/25 11:18:58;;;;;;;6.97;4.65;;;22.40;83.50;;;;;;6158378;22;20058;-60
2023/05/25 11:21:27;;;;;;;6.97;5.10;;;22.20;83.90;;;;;;6153777;22;20830;-56
2023/05/25 11:23:57;;;;;;;5.53;4.88;;;22.10;84.10;;;;;;6157687;22;20041;-62
2023/05/25 11:26:27;;;;;;;5.50;4.88;;;22.00;84.50;;;;;;6160606;22;20008;-57
2023/05/25 11:28:54;;;;;;;5.93;4.73;;;22.00;84.60;;;;;;6163305;23;20006;-58
2023/05/25 11:31:28;;;;;;;7.30;5.30;;;21.90;84.40;;;;;;6161449;22;20044;-58
2023/05/25 11:33:59;;;;;;;5.85;4.97;;;21.80;84.80;;;;;;6160010;22;20009;-59
2023/05/25 11:36:26;;;;;;;;;;;21.70;85.00;;;;;;6151368;22;20666;-59
2023/05/25 11:38:52;;;;;;;5.22;4.72;;;21.60;84.60;;;;;;6154929;22;19908;-61
2023/05/25 11:41:22;;;;;;;4.55;4.03;;;21.60;85.50;;;;;;6151558;22;20012;-59
2023/05/25 11:43:49;;;;;;;7.85;4.25;;;21.50;84.70;;;;;;6157894;22;20114;-59
2023/05/25 11:46:20;;;;;;;4.93;4.30;;;21.50;85.20;;;;;;6153760;22;20016;-61
2023/05/25 11:48:51;;;;;;;4.45;3.70;;;21.40;85.10;;;;;;6156671;23;20009;-60
2023/05/25 11:51:19;;;;;;;4.93;3.78;;;21.40;84.50;;;;;;6154507;22;20012;-61
2023/05/25 11:53:45;;;;;;;3.95;3.55;;;21.40;84.60;;;;;;6152223;22;20037;-60
2023/05/25 11:56:14;;;;;;;5.80;3.88;;;21.40;84.90;;;;;;6148019;22;20089;-61
2023/05/25 11:58:43;;;;;;;5.05;4.00;;;21.40;84.70;;;;;;6155958;22;20016;-60
2023/05/25 12:01:30;;;;;;;4.82;3.83;;;21.40;84.80;;;;;;6157711;22;20009;-59
2023/05/25 12:03:56;;;;;;;4.50;4.03;;;21.50;84.90;;;;;;6156487;22;20427;-59
2023/05/25 12:06:32;;;;;;;5.05;4.03;;;21.50;84.20;;;;;;6160533;22;20008;-59
2023/05/25 12:09:03;;;;;;;4.38;3.72;;;21.50;84.00;;;;;;6157596;22;20008;-57
2023/05/25 12:11:44;;;;;;;3.90;3.30;;;21.50;83.60;;;;;;6158087;22;20042;-57
2023/05/25 12:14:10;;;;;;;5.32;4.35;;;21.60;83.50;;;;;;6163586;22;20029;-58
2023/05/25 12:16:39;;;;;;;5.82;4.30;;;21.60;83.30;;;;;;6159849;22;20388;-59
2023/05/25 12:19:10;;;;;;;6.38;4.50;;;21.60;83.50;;;;;;6162039;22;20020;-57
2023/05/25 12:21:37;;;;;;;5.85;4.28;;;21.70;83.30;;;;;;6156529;22;20757;-56
2023/05/25 12:24:04;;;;;;;5.72;4.00;;;21.70;83.00;;;;;;6161829;22;20016;-59
2023/05/25 12:26:30;;;;;;;7.78;5.72;;;21.80;84.00;;;;;;6160188;22;20100;-59
2023/05/25 12:29:01;;;;;;;7.53;4.88;;;21.80;83.30;;;;;;6162939;22;20060;-58
2023/05/25 12:31:32;;;;;;;8.88;4.85;;;21.80;83.30;;;;;;6158207;22;20345;-58
2023/05/25 12:34:11;;;;;;;5.03;4.53;;;21.80;83.60;;;;;;6150787;22;20055;-59
2023/05/25 12:36:53;;;;;;;5.05;4.20;;;21.80;83.60;;;;;;6152709;22;20064;-57
2023/05/25 12:39:30;;;;;;;5.95;4.60;;;21.80;84.10;;;;;;6157839;22;20097;-58
2023/05/25 12:42:02;;;;;;;5.10;4.30;;;21.80;84.00;;;;;;6154541;22;20009;-58
2023/05/25 12:44:35;;;;;;;5.53;4.22;;;21.80;84.20;;;;;;6159331;23;20063;-58
2023/05/25 12:47:31;;;;;;;6.95;3.95;;;21.80;84.20;;;;;;6155400;22;20617;-58
2023/05/25 12:50:12;;;;;;;5.47;4.57;;;21.80;84.30;;;;;;6161817;22;20073;-60